createdAt,value
2022-12-17T00:03:05.234Z,100975.63
2022-12-17T00:06:00.633Z,100973.81
2022-12-17T00:08:52.018Z,100972.44
2022-12-17T00:11:56.102Z,100975.81
2022-12-17T00:14:43.937Z,100982.50
2022-12-17T00:17:32.225Z,100987.31
2022-12-17T00:20:53.803Z,100994.03
2022-12-17T00:23:57.511Z,100898.59
2022-12-17T00:26:53.077Z,100955.50
2022-12-17T00:29:51.294Z,100993.53
2022-12-17T00:32:46.764Z,101011.13
2022-12-17T00:35:44.821Z,101018.75
2022-12-17T00:38:34.578Z,101002.84
2022-12-17T00:41:38.625Z,101019.25
2022-12-17T00:44:30.782Z,101012.16
2022-12-17T00:47:34.983Z,101003.53
2022-12-17T00:50:30.477Z,101023.81
2022-12-17T00:53:30.806Z,101023.81
2022-12-17T00:56:28.406Z,101027.31
2022-12-17T00:59:21.184Z,101031.75
2022-12-17T01:02:09.422Z,101030.41
2022-12-17T01:04:57.277Z,101033.25
2022-12-17T01:07:47.972Z,101029.88
2022-12-17T01:10:38.537Z,101029.22
2022-12-17T01:13:31.127Z,101038.19
2022-12-17T01:16:24.047Z,101030.97
2022-12-17T01:22:22.066Z,101036.91
2022-12-17T01:28:54.611Z,101043.16
2022-12-17T01:31:48.228Z,101047.97
2022-12-17T01:34:48.163Z,101048.72
2022-12-17T01:37:34.835Z,101044.94
2022-12-17T01:47:20.347Z,101060.78
2022-12-17T01:50:17.413Z,101074.16
2022-12-17T01:53:08.602Z,101079.06
2022-12-17T01:55:58.000Z,101062.78
2022-12-17T01:59:02.672Z,101073.50
2022-12-17T02:01:50.122Z,101069.34
2022-12-17T02:04:57.049Z,101074.50
2022-12-17T02:08:08.390Z,101079.97
2022-12-17T02:11:13.246Z,101042.31
2022-12-17T02:14:25.701Z,101082.72
2022-12-17T02:17:30.509Z,101027.00
2022-12-17T02:20:37.327Z,101077.91
2022-12-17T02:23:40.652Z,101090.72
2022-12-17T02:26:38.784Z,101077.25
2022-12-17T02:29:28.745Z,101088.56
2022-12-17T02:32:24.191Z,101085.84
2022-12-17T02:35:14.280Z,101095.31
2022-12-17T02:38:08.974Z,101086.69
2022-12-17T02:41:00.876Z,101097.22
2022-12-17T02:43:54.212Z,101095.69
2022-12-17T02:46:47.400Z,101086.16
2022-12-17T02:49:40.137Z,101105.38
2022-12-17T02:52:35.195Z,101101.16
2022-12-17T02:55:26.847Z,101083.09
2022-12-17T02:58:26.278Z,101100.59
2022-12-17T03:01:26.700Z,101095.25
2022-12-17T03:04:19.208Z,101083.75
2022-12-17T03:07:10.874Z,101112.59
2022-12-17T03:10:17.107Z,101114.19
2022-12-17T03:13:15.747Z,101108.69
2022-12-17T03:16:04.261Z,101106.75
2022-12-17T03:19:05.010Z,101107.22
2022-12-17T03:22:09.635Z,101107.72
2022-12-17T03:25:02.310Z,101110.63
2022-12-17T03:27:57.256Z,101098.03
2022-12-17T03:30:52.648Z,101118.94
2022-12-17T03:33:40.430Z,101016.59
2022-12-17T03:36:30.652Z,100892.78
2022-12-17T03:39:24.274Z,101114.78
2022-12-17T03:42:19.658Z,101113.91
2022-12-17T03:45:19.808Z,101096.25
2022-12-17T03:48:09.467Z,101120.59
2022-12-17T03:51:00.265Z,101090.16
2022-12-17T03:53:47.823Z,101124.00
2022-12-17T03:56:37.583Z,101109.75
2022-12-17T03:59:37.364Z,101129.19
2022-12-17T04:02:30.435Z,101123.19
2022-12-17T04:05:21.820Z,101129.25
2022-12-17T04:08:15.189Z,101128.47
2022-12-17T04:14:26.918Z,101130.06
2022-12-17T04:17:17.813Z,101131.72
2022-12-17T04:23:10.968Z,101127.72
2022-12-17T04:26:03.904Z,101114.59
2022-12-17T04:28:58.882Z,101134.22
2022-12-17T04:32:02.086Z,101146.97
2022-12-17T04:37:58.367Z,101139.03
2022-12-17T04:40:54.289Z,101150.34
2022-12-17T04:43:41.910Z,101145.63
2022-12-17T04:46:39.501Z,101150.09
2022-12-17T04:49:49.812Z,101148.91
2022-12-17T04:52:40.755Z,101147.88
2022-12-17T04:55:34.618Z,101151.94
2022-12-17T04:58:37.256Z,101150.72
2022-12-17T05:04:39.091Z,101164.97
2022-12-17T05:07:29.821Z,101161.72
2022-12-17T05:10:17.716Z,101118.41
2022-12-17T05:13:07.037Z,101171.22
2022-12-17T05:16:22.931Z,101170.06
2022-12-17T05:19:12.372Z,101156.16
2022-12-17T05:22:05.451Z,101180.78
2022-12-17T05:25:16.525Z,101169.47
2022-12-17T05:28:16.832Z,101184.09
2022-12-17T05:31:13.900Z,101142.84
2022-12-17T05:34:07.871Z,101176.75
2022-12-17T05:37:05.542Z,101192.50
2022-12-17T05:43:36.897Z,101201.59
2022-12-17T05:46:29.798Z,101191.78
2022-12-17T05:49:28.858Z,101203.03
2022-12-17T05:52:32.953Z,101204.00
2022-12-17T05:55:29.291Z,101200.66
2022-12-17T06:01:44.096Z,101204.66
2022-12-17T06:07:53.662Z,101213.94
2022-12-17T06:10:55.009Z,101214.81
2022-12-17T06:13:44.916Z,101217.44
2022-12-17T06:24:30.707Z,101237.31
2022-12-17T06:27:15.929Z,101200.19
2022-12-17T06:30:01.418Z,101246.81
2022-12-17T06:32:48.586Z,101258.09
2022-12-17T06:35:34.073Z,101256.22
2022-12-17T06:38:20.136Z,101206.16
2022-12-17T06:41:05.728Z,101223.91
2022-12-17T06:43:51.068Z,101243.06
2022-12-17T06:46:36.615Z,101255.56
2022-12-17T06:49:23.717Z,101269.41
2022-12-17T06:52:11.213Z,101267.03
2022-12-17T06:54:56.562Z,101272.97
2022-12-17T06:57:47.487Z,101274.41
2022-12-17T07:00:35.864Z,101282.00
2022-12-17T07:03:23.290Z,101256.50
2022-12-17T07:06:10.575Z,101293.16
2022-12-17T07:08:56.153Z,101238.38
2022-12-17T07:11:42.576Z,101299.44
2022-12-17T07:14:27.755Z,101306.38
2022-12-17T07:17:13.457Z,101287.34
2022-12-17T07:19:58.612Z,101313.00
2022-12-17T07:22:45.165Z,101315.50
2022-12-17T07:25:30.736Z,101301.16
2022-12-17T07:28:16.204Z,101303.75
2022-12-17T07:31:01.533Z,101319.97
2022-12-17T07:33:46.896Z,101326.66
2022-12-17T07:36:32.122Z,101337.75
2022-12-17T07:39:18.852Z,101281.94
2022-12-17T07:42:04.026Z,101344.56
2022-12-17T07:44:49.222Z,101347.91
2022-12-17T07:47:34.854Z,101350.75
2022-12-17T07:50:20.245Z,101360.28
2022-12-17T07:53:05.796Z,101339.56
2022-12-17T07:55:52.467Z,101362.78
2022-12-17T07:58:37.704Z,101345.06
2022-12-17T08:01:23.517Z,101335.34
2022-12-17T08:04:16.908Z,101174.50
2022-12-17T08:07:06.951Z,101364.91
2022-12-17T08:09:59.653Z,101349.03
2022-12-17T08:13:01.519Z,101372.13
2022-12-17T08:15:48.193Z,101378.06
2022-12-17T08:18:42.987Z,101379.88
2022-12-17T08:21:28.609Z,101384.72
2022-12-17T08:24:13.944Z,101385.13
2022-12-17T08:26:59.312Z,101382.72
2022-12-17T08:29:46.670Z,101389.94
2022-12-17T08:32:32.270Z,101363.28
2022-12-17T08:35:18.364Z,101397.75
2022-12-17T08:38:03.928Z,101384.88
2022-12-17T08:40:49.442Z,101402.47
2022-12-17T08:43:35.366Z,101398.38
2022-12-17T08:46:22.675Z,101403.09
2022-12-17T08:49:08.191Z,101400.41
2022-12-17T08:51:53.382Z,101411.81
2022-12-17T08:54:38.463Z,101403.97
2022-12-17T08:57:31.499Z,101389.31
2022-12-17T09:00:29.167Z,101372.00
2022-12-17T09:03:20.911Z,101401.47
2022-12-17T09:06:06.896Z,101414.91
2022-12-17T09:08:52.363Z,101395.41
2022-12-17T09:11:37.957Z,101415.28
2022-12-17T09:14:23.067Z,101417.91
2022-12-17T09:17:08.215Z,101413.56
2022-12-17T09:19:55.247Z,101417.84
2022-12-17T09:22:40.700Z,101403.72
2022-12-17T09:25:27.547Z,101408.81
2022-12-17T09:28:12.885Z,101411.94
2022-12-17T09:30:59.710Z,101416.53
2022-12-17T09:33:47.176Z,101411.94
2022-12-17T09:36:38.260Z,101413.00
2022-12-17T09:39:23.922Z,101401.88
2022-12-17T09:42:18.132Z,101420.13
2022-12-17T09:45:09.530Z,101423.41
2022-12-17T09:48:10.134Z,101433.38
2022-12-17T09:50:58.090Z,101424.34
2022-12-17T09:53:54.163Z,101423.66
2022-12-17T09:56:45.731Z,101420.88
2022-12-17T09:59:39.047Z,101384.47
2022-12-17T10:02:32.659Z,101427.38
2022-12-17T10:05:20.738Z,101431.63
2022-12-17T10:08:07.023Z,101427.06
2022-12-17T10:10:59.333Z,101431.06
2022-12-17T10:13:44.839Z,101437.78
2022-12-17T10:16:44.285Z,101441.19
2022-12-17T10:19:34.398Z,101408.63
2022-12-17T10:22:30.859Z,101326.22
2022-12-17T10:25:20.882Z,101437.69
2022-12-17T10:28:07.911Z,101442.22
2022-12-17T10:30:55.029Z,101440.22
2022-12-17T10:33:41.145Z,101441.91
2022-12-17T10:36:40.690Z,101426.72
2022-12-17T10:39:34.589Z,101430.81
2022-12-17T10:42:21.060Z,101443.41
2022-12-17T10:45:08.009Z,101449.59
2022-12-17T10:48:05.049Z,101448.31
2022-12-17T10:50:51.635Z,101449.63
2022-12-17T10:53:39.772Z,101442.22
2022-12-17T10:56:26.187Z,101458.22
2022-12-17T10:59:13.293Z,101454.13
2022-12-17T11:02:03.851Z,101455.41
2022-12-17T11:04:55.493Z,101451.75
2022-12-17T11:07:46.043Z,101470.97
2022-12-17T11:10:35.235Z,101458.56
2022-12-17T11:13:24.305Z,101421.78
2022-12-17T11:16:17.382Z,101450.69
2022-12-17T11:19:10.888Z,101448.75
2022-12-17T11:22:02.115Z,101456.97
2022-12-17T11:24:56.633Z,101445.09
2022-12-17T11:27:46.115Z,101448.09
2022-12-17T11:30:32.759Z,101448.34
2022-12-17T11:33:30.687Z,101405.69
2022-12-17T11:36:36.815Z,101438.16
2022-12-17T11:39:30.777Z,101435.00
2022-12-17T11:42:22.984Z,101394.19
2022-12-17T11:45:22.523Z,101435.53
2022-12-17T11:48:17.482Z,101435.47
2022-12-17T11:51:07.925Z,101419.00
2022-12-17T11:54:13.180Z,101433.06
2022-12-17T11:57:03.899Z,101425.25
2022-12-17T11:59:55.070Z,101429.88
2022-12-17T12:02:57.041Z,101427.53
2022-12-17T12:05:56.277Z,101433.75
2022-12-17T12:08:46.026Z,101431.91
2022-12-17T12:11:44.106Z,101436.50
2022-12-17T12:14:41.087Z,101411.88
2022-12-17T12:17:37.800Z,101423.09
2022-12-17T12:20:34.912Z,101428.94
2022-12-17T12:23:27.660Z,101435.78
2022-12-17T12:26:25.715Z,101419.94
2022-12-17T12:29:18.215Z,101426.00
2022-12-17T12:32:13.721Z,101095.81
2022-12-17T12:35:01.626Z,101380.91
2022-12-17T12:37:48.676Z,101430.81
2022-12-17T12:40:41.921Z,101388.22
2022-12-17T12:43:36.764Z,101430.91
2022-12-17T12:46:28.479Z,101405.34
2022-12-17T12:49:19.288Z,101298.78
2022-12-17T12:52:05.983Z,101415.22
2022-12-17T12:55:10.325Z,101423.53
2022-12-17T12:57:57.753Z,101370.09
2022-12-17T13:00:48.149Z,101333.47
2022-12-17T13:03:48.389Z,101429.44
2022-12-17T13:06:36.462Z,101428.75
2022-12-17T13:09:20.839Z,101430.50
2022-12-17T13:11:55.227Z,101309.22
2022-12-17T13:14:27.578Z,101408.34
2022-12-17T13:17:00.238Z,101431.06
2022-12-17T13:19:39.189Z,101427.97
2022-12-17T13:22:33.550Z,101433.13
2022-12-17T13:25:18.315Z,101424.41
2022-12-17T13:27:46.902Z,101421.63
2022-12-17T13:30:39.252Z,101427.69
2022-12-17T13:33:26.145Z,101411.63
2022-12-17T13:36:09.288Z,101432.66
2022-12-17T13:38:52.386Z,101426.38
2022-12-17T13:41:22.129Z,101424.47
2022-12-17T13:43:52.383Z,101429.81
2022-12-17T13:46:23.190Z,101442.00
2022-12-17T13:48:58.984Z,101439.38
2022-12-17T13:51:30.941Z,101328.75
2022-12-17T13:54:03.909Z,101426.69
2022-12-17T13:56:34.928Z,101323.97
2022-12-17T13:59:09.262Z,101434.09
2022-12-17T14:01:46.404Z,101456.19
2022-12-17T14:04:22.417Z,101455.56
2022-12-17T14:06:53.292Z,101433.53
2022-12-17T14:09:23.336Z,101429.94
2022-12-17T14:12:09.710Z,101455.31
2022-12-17T14:14:39.327Z,101447.22
2022-12-17T14:17:08.357Z,101460.22
2022-12-17T14:19:38.526Z,101433.00
2022-12-17T14:22:08.556Z,101470.72
2022-12-17T14:24:36.912Z,101465.31
2022-12-17T14:27:05.177Z,101471.47
2022-12-17T14:29:33.400Z,101464.59
2022-12-17T14:32:04.031Z,101426.06
2022-12-17T14:34:42.291Z,101470.22
2022-12-17T14:37:20.833Z,101484.06
2022-12-17T14:39:49.583Z,101484.44
2022-12-17T14:42:29.280Z,101482.25
2022-12-17T14:45:00.521Z,101487.41
2022-12-17T14:47:30.385Z,101481.19
2022-12-17T14:50:02.587Z,101484.69
2022-12-17T14:52:42.206Z,101486.38
2022-12-17T14:55:35.145Z,101179.91
2022-12-17T14:58:24.458Z,101479.19
2022-12-17T15:00:56.516Z,101475.34
2022-12-17T15:03:32.213Z,101463.28
2022-12-17T15:06:03.258Z,101481.91
2022-12-17T15:08:39.880Z,101482.75
2022-12-17T15:11:08.918Z,101475.16
2022-12-17T15:13:36.966Z,101461.44
2022-12-17T15:16:05.481Z,101483.53
2022-12-17T15:18:34.233Z,101480.56
2022-12-17T15:21:03.611Z,101483.25
2022-12-17T15:23:33.637Z,101483.91
2022-12-17T15:26:01.697Z,101482.09
2022-12-17T15:28:30.067Z,101431.44
2022-12-17T15:30:58.348Z,101441.00
2022-12-17T15:33:26.536Z,101486.56
2022-12-17T15:35:54.741Z,101478.91
2022-12-17T15:38:42.752Z,101500.22
2022-12-17T15:41:27.257Z,101502.78
2022-12-17T15:43:55.136Z,101508.28
2022-12-17T15:46:23.354Z,101508.78
2022-12-17T15:48:51.404Z,101513.53
2022-12-17T15:51:21.040Z,101509.25
2022-12-17T15:53:50.485Z,101509.16
2022-12-17T15:56:22.323Z,101509.72
2022-12-17T15:58:50.919Z,101455.50
2022-12-17T16:01:19.679Z,101503.59
2022-12-17T16:03:47.888Z,101515.03
2022-12-17T16:06:17.150Z,101512.78
2022-12-17T16:08:45.314Z,101498.56
2022-12-17T16:11:16.023Z,101519.19
2022-12-17T16:13:44.046Z,101512.88
2022-12-17T16:16:12.182Z,101516.38
2022-12-17T16:18:40.507Z,101492.81
2022-12-17T16:21:09.899Z,101491.34
2022-12-17T16:23:37.959Z,101532.72
2022-12-17T16:26:07.662Z,101492.94
2022-12-17T16:28:37.685Z,101524.91
2022-12-17T16:31:07.824Z,101532.47
2022-12-17T16:33:36.196Z,101526.69
2022-12-17T16:36:05.268Z,101438.06
2022-12-17T16:38:33.852Z,101530.41
2022-12-17T16:41:03.845Z,101527.13
2022-12-17T16:43:35.109Z,101530.00
2022-12-17T16:46:09.101Z,101541.59
2022-12-17T16:48:40.861Z,101499.28
2022-12-17T16:51:19.873Z,101550.78
2022-12-17T16:53:52.251Z,101550.34
2022-12-17T16:56:21.767Z,101559.19
2022-12-17T16:58:50.122Z,101557.53
2022-12-17T17:01:21.470Z,101556.72
2022-12-17T17:03:50.057Z,101515.38
2022-12-17T17:06:19.302Z,101550.72
2022-12-17T17:08:47.968Z,101571.34
2022-12-17T17:11:19.303Z,101437.06
2022-12-17T17:13:47.199Z,101540.16
2022-12-17T17:16:15.121Z,101546.19
2022-12-17T17:18:44.442Z,101417.28
2022-12-17T17:21:18.243Z,101579.34
2022-12-17T17:23:46.221Z,101560.31
2022-12-17T17:26:16.069Z,101485.91
2022-12-17T17:28:45.692Z,101512.94
2022-12-17T17:31:15.905Z,101584.34
2022-12-17T17:33:47.826Z,101586.47
2022-12-17T17:36:18.358Z,101592.38
2022-12-17T17:38:47.302Z,101576.66
2022-12-17T17:41:17.581Z,101580.34
2022-12-17T17:43:45.998Z,101583.28
2022-12-17T17:46:15.693Z,101587.41
2022-12-17T17:48:46.607Z,101581.06
2022-12-17T17:51:19.020Z,101596.13
2022-12-17T17:53:47.378Z,101595.69
2022-12-17T17:56:17.600Z,101601.25
2022-12-17T17:58:46.819Z,101458.44
2022-12-17T18:01:17.522Z,101578.63
2022-12-17T18:03:47.091Z,101547.13
2022-12-17T18:06:15.383Z,101536.31
2022-12-17T18:08:43.779Z,101552.00
2022-12-17T18:11:14.956Z,101594.72
2022-12-17T18:13:56.761Z,101612.47
2022-12-17T18:16:26.591Z,101610.66
2022-12-17T18:18:58.950Z,101621.09
2022-12-17T18:21:28.588Z,101619.41
2022-12-17T18:23:59.619Z,101626.78
2022-12-17T18:26:28.833Z,101584.25
2022-12-17T18:28:58.492Z,101611.44
2022-12-17T18:31:27.868Z,101590.47
2022-12-17T18:33:58.915Z,101640.44
2022-12-17T18:36:28.647Z,101628.50
2022-12-17T18:38:57.512Z,101627.66
2022-12-17T18:41:44.009Z,101628.84
2022-12-17T18:44:12.897Z,101599.75
2022-12-17T18:46:41.191Z,101627.66
2022-12-17T18:49:12.846Z,101514.44
2022-12-17T18:51:42.894Z,101634.78
2022-12-17T18:54:13.452Z,101636.25
2022-12-17T18:57:00.403Z,101646.59
2022-12-17T18:59:31.622Z,101635.41
2022-12-17T19:02:00.319Z,101598.59
2022-12-17T19:04:30.154Z,101649.31
2022-12-17T19:06:57.979Z,101643.59
2022-12-17T19:09:27.868Z,101648.69
2022-12-17T19:11:57.130Z,101653.91
2022-12-17T19:14:25.810Z,101581.31
2022-12-17T19:16:55.251Z,101654.75
2022-12-17T19:19:23.806Z,101642.81
2022-12-17T19:21:54.968Z,101551.56
2022-12-17T19:24:24.233Z,101630.63
2022-12-17T19:26:52.828Z,101640.56
2022-12-17T19:29:21.714Z,101551.19
2022-12-17T19:31:50.287Z,101637.47
2022-12-17T19:34:19.570Z,101651.84
2022-12-17T19:36:48.719Z,101612.41
2022-12-17T19:39:20.203Z,101644.97
2022-12-17T19:41:51.324Z,101642.09
2022-12-17T19:44:20.551Z,101649.34
2022-12-17T19:46:49.123Z,101623.22
2022-12-17T19:49:18.211Z,101605.84
2022-12-17T19:51:46.376Z,101645.50
2022-12-17T19:54:15.518Z,101603.59
2022-12-17T19:56:45.987Z,101648.44
2022-12-17T19:59:14.808Z,101589.53
2022-12-17T20:01:44.950Z,101652.16
2022-12-17T20:04:13.870Z,101662.97
2022-12-17T20:06:43.276Z,101665.53
2022-12-17T20:09:11.697Z,101666.09
2022-12-17T20:11:39.952Z,101667.00
2022-12-17T20:14:13.212Z,101664.78
2022-12-17T20:16:43.518Z,101550.53
2022-12-17T20:19:13.499Z,101630.31
2022-12-17T20:21:41.552Z,101667.63
2022-12-17T20:24:11.330Z,101653.78
2022-12-17T20:26:39.317Z,101480.84
2022-12-17T20:29:09.707Z,101679.25
2022-12-17T20:31:39.107Z,101679.63
2022-12-17T20:37:30.805Z,101652.78
2022-12-17T20:39:59.056Z,101678.47
2022-12-17T20:42:27.597Z,101533.66
2022-12-17T20:44:57.476Z,101637.19
2022-12-17T20:47:25.695Z,101685.28
2022-12-17T20:49:54.036Z,101549.25
2022-12-17T20:52:22.274Z,101670.50
2022-12-17T20:54:50.353Z,101694.03
2022-12-17T20:57:18.561Z,101604.97
2022-12-17T20:59:46.643Z,101650.16
2022-12-17T21:02:16.902Z,101659.41
2022-12-17T21:08:50.531Z,101694.81
2022-12-17T21:11:22.249Z,101552.50
2022-12-17T21:13:50.179Z,101724.44
2022-12-17T21:16:21.260Z,101705.06
2022-12-17T21:19:00.246Z,101722.03
2022-12-17T21:21:30.147Z,101673.75
2022-12-17T21:23:57.931Z,101715.47
2022-12-17T21:26:27.521Z,101723.97
2022-12-17T21:29:00.741Z,101675.91
2022-12-17T21:31:31.466Z,101692.16
2022-12-17T21:34:02.993Z,101680.28
2022-12-17T21:36:33.033Z,101722.22
2022-12-17T21:39:02.206Z,101728.16
2022-12-17T21:41:39.319Z,101730.78
2022-12-17T21:44:14.139Z,101726.03
2022-12-17T21:46:48.523Z,101725.53
2022-12-17T21:49:19.875Z,101728.03
2022-12-17T21:51:48.136Z,101702.19
2022-12-17T21:54:19.836Z,101738.88
2022-12-17T21:56:48.890Z,101697.09
2022-12-17T21:59:17.452Z,101743.66
2022-12-17T22:01:46.162Z,101744.91
2022-12-17T22:04:14.523Z,101746.06
2022-12-17T22:06:49.697Z,101750.00
2022-12-17T22:09:46.624Z,101765.19
2022-12-17T22:12:33.368Z,101754.22
2022-12-17T22:15:01.323Z,101745.25
2022-12-17T22:17:29.769Z,101656.38
2022-12-17T22:19:57.854Z,101751.72
2022-12-17T22:22:27.211Z,101747.34
2022-12-17T22:25:00.886Z,101743.09
2022-12-17T22:27:32.695Z,101751.09
2022-12-17T22:30:17.995Z,101752.06
2022-12-17T22:33:14.273Z,101753.91
2022-12-17T22:37:02.982Z,101767.03
2022-12-17T22:42:49.017Z,101684.06
2022-12-17T22:44:15.000Z,101754.34
2022-12-17T22:44:51.817Z,101750.78
2022-12-17T22:47:21.033Z,101746.38
2022-12-17T22:49:48.923Z,101715.50
2022-12-17T22:52:17.508Z,101740.59
2022-12-17T22:54:49.236Z,101719.31
2022-12-17T22:57:36.812Z,101732.28
2022-12-17T23:00:11.115Z,101666.47
2022-12-17T23:02:39.302Z,101743.97
2022-12-17T23:05:07.998Z,101664.50
2022-12-17T23:07:36.023Z,101731.81
2022-12-17T23:10:06.174Z,101706.53
2022-12-17T23:12:52.463Z,101730.16
2022-12-17T23:15:23.095Z,101743.03
2022-12-17T23:17:51.596Z,101753.47
2022-12-17T23:20:20.037Z,101720.47
2022-12-17T23:22:48.020Z,101768.13
2022-12-17T23:25:17.643Z,101766.31
2022-12-17T23:27:46.747Z,101763.88
2022-12-17T23:30:17.027Z,101761.69
2022-12-17T23:32:46.369Z,101755.91
2022-12-17T23:35:15.549Z,101743.97
2022-12-17T23:37:43.796Z,101764.03
2022-12-17T23:40:13.221Z,101763.25
2022-12-17T23:42:42.770Z,101684.63
2022-12-17T23:45:11.980Z,101765.16
2022-12-17T23:47:42.072Z,101770.63
2022-12-17T23:50:11.768Z,101764.66
2022-12-17T23:52:40.393Z,101767.34
2022-12-17T23:55:09.224Z,101764.34
2022-12-17T23:57:37.118Z,101767.22
